Betagas — V2KA8 — position and weather

sailwx.info

Track history (hours):
 
Tides and Currents Weather Stations Pressure Air Temp Water Temp Dewpoint Dewpoint Depression Visibility Wind Speed Wind Dir Waves Ship Positions

Betagas

Last reported at 2014-Nov-28 18:31 UTC. Time now 2014-Nov-28 22:56 UTC.
Position N 55°57' W 001°54'.

Length 114.6 m; beam 15.7 m; draft 7.4 m.

Type: Tanker. MMSI: 304050636.

Date/timePositionNaut miles runAvg speedWind from/ knotsBaromVisibWave heightAir tempDewpointWater temp
2014-Nov-28 18:31N 55°57' W 001°54'1010.6
2014-Nov-28 17:33N 55°60' W 002°11'1110.6
2014-Nov-28 16:33N 56°02' W 002°30'1 0.8
2014-Nov-28 15:23N 56°02' W 002°32'0 0.0
2014-Nov-28 14:26N 56°02' W 002°32'0 0.0
2014-Nov-28 13:26N 56°02' W 002°32'0 0.0
2014-Nov-28 12:26N 56°02' W 002°32'0 0.0
2014-Nov-28 11:29N 56°02' W 002°32'0 0.0
2014-Nov-28 10:29N 56°02' W 002°32'0 0.0
2014-Nov-28 09:29N 56°02' W 002°32'0 0.0
2014-Nov-28 08:32N 56°02' W 002°32'0 0.0
2014-Nov-28 07:29N 56°02' W 002°32'0 0.0
2014-Nov-28 06:32N 56°02' W 002°32'0 0.0
2014-Nov-28 05:32N 56°02' W 002°32'0 0.0
2014-Nov-28 04:32N 56°02' W 002°32'0 0.0
2014-Nov-28 03:32N 56°02' W 002°32'0 0.0
2014-Nov-28 02:32N 56°02' W 002°32'0 0.0
2014-Nov-28 01:23N 56°02' W 002°31'0 0.0
2014-Nov-28 00:26N 56°02' W 002°31'0 0.0
2014-Nov-27 23:23N 56°02' W 002°31'0 0.0
2014-Nov-27 22:26N 56°02' W 002°31'0 0.0
2014-Nov-27 21:26N 56°02' W 002°31'0 0.0
2014-Nov-27 20:29N 56°02' W 002°31'0 0.0
2014-Nov-27 19:29N 56°02' W 002°31'0 0.0
2014-Nov-27 18:32N 56°02' W 002°31'0 0.0
2014-Nov-27 17:32N 56°02' W 002°31'0 0.4
2014-Nov-27 16:33N 56°02' W 002°32'1211.7
2014-Nov-27 15:33N 56°05' W 002°52'1313.4
2014-Nov-27 14:33N 56°02' W 003°15'1110.9
2014-Nov-27 13:33N 56°02' W 003°35'4 3.6
2014-Nov-27 12:31N 56°02' W 003°41'0 0.0
2014-Nov-27 11:31N 56°02' W 003°41'0 0.0
2014-Nov-27 10:31N 56°02' W 003°41'0 0.0
2014-Nov-27 09:28N 56°02' W 003°41'0 0.0
2014-Nov-27 08:31N 56°02' W 003°41'0 0.0
2014-Nov-27 07:31N 56°02' W 003°41'0 0.0
2014-Nov-27 06:31N 56°02' W 003°41'0 0.0
2014-Nov-27 05:31N 56°02' W 003°41'0 0.0
2014-Nov-27 04:31N 56°02' W 003°41'0 0.0
2014-Nov-27 03:31N 56°02' W 003°41'0 0.0
2014-Nov-27 02:31N 56°02' W 003°41'0 0.0
2014-Nov-27 01:31N 56°02' W 003°41'0 0.0
2014-Nov-27 00:31N 56°02' W 003°41'0 0.0
2014-Nov-26 23:31N 56°02' W 003°41'0 0.0
2014-Nov-26 22:31N 56°02' W 003°41'0 0.0
2014-Nov-26 21:31N 56°02' W 003°41'0 0.0
2014-Nov-26 20:31N 56°02' W 003°41'0 0.0
2014-Nov-26 19:31N 56°02' W 003°41'0 0.0
2014-Nov-26 18:31N 56°02' W 003°41'0 0.0
2014-Nov-26 17:33N 56°02' W 003°41'3 3.0
2014-Nov-26 16:33N 56°02' W 003°36'8 8.2
2014-Nov-26 15:33N 56°01' W 003°22'10 9.8
2014-Nov-26 14:33N 56°04' W 003°05'3 2.7
2014-Nov-26 13:33N 56°07' W 003°05'0 0.0
2014-Nov-26 12:24N 56°07' W 003°05'0 0.1
2014-Nov-26 11:27N 56°07' W 003°05'0 0.1
2014-Nov-26 10:27N 56°07' W 003°05'0 0.0
2014-Nov-26 09:27N 56°07' W 003°05'0 0.0
2014-Nov-26 08:30N 56°07' W 003°05'0 0.0
2014-Nov-26 07:30N 56°07' W 003°05'0 0.0
2014-Nov-26 06:30N 56°07' W 003°05'0 0.0
2014-Nov-26 05:33N 56°07' W 003°05'2 2.1
2014-Nov-26 04:33N 56°07' W 003°01'1212.5
2014-Nov-26 03:34N 56°06' W 002°39'1211.8
2014-Nov-26 02:33N 56°03' W 002°19'1212.0
2014-Nov-26 01:34N 55°59' W 001°59'1212.2
2014-Nov-26 00:32N 55°51' W 001°42'5012.4
2014-Nov-25 20:33N 55°04' W 001°10'1212.3
2014-Nov-25 19:33N 54°52' W 001°08'1211.9
2014-Nov-25 18:31N 54°40' W 001°08'4 1.4
2014-Nov-25 15:26N 54°36' W 001°11'0 0.0
2014-Nov-25 12:29N 54°36' W 001°11'0 0.0
2014-Nov-25 10:26N 54°36' W 001°11'0 0.0
2014-Nov-24 13:05N 54°36' W 001°11'0 0.0
2014-Nov-24 11:23N 54°36' W 001°11'0 0.0
2014-Nov-24 10:23N 54°36' W 001°11'0 0.0
2014-Nov-24 09:34N 54°36' W 001°11'7 6.9
2014-Nov-24 08:32N 54°41' W 001°02'1814.0
2014-Nov-24 07:17N 54°38' W 000°33'1014.0
2014-Nov-24 06:33N 54°36' W 000°15'1413.6
2014-Nov-24 05:33N 54°33' E 000°08'1313.3
2014-Nov-24 04:33N 54°31' E 000°30'15313.9
2014-Nov-23 17:33N 54°05' E 004°49'1413.9
2014-Nov-23 16:33N 54°06' E 005°13'1515.1
2014-Nov-23 15:33N 54°08' E 005°38'5015.5
2014-Nov-23 12:20N 54°12' E 007°03'1215.0
2014-Nov-23 11:33N 54°12' E 007°23'1414.2
2014-Nov-23 10:33N 54°07' E 007°46'1414.2
2014-Nov-23 09:33N 54°01' E 008°07'1312.7
2014-Nov-23 08:34N 53°59' E 008°28'1313.4
2014-Nov-23 07:34N 53°51' E 008°47'1414.4
2014-Nov-23 06:33N 53°53' E 009°11'1514.7
2014-Nov-23 05:34N 53°43' E 009°29'4 0.2
2014-Nov-22 09:33N 53°39' E 009°31'5 5.5
2014-Nov-22 08:32N 53°44' E 009°26'1111.5
2014-Nov-22 07:34N 53°53' E 009°14'1010.3
2014-Nov-22 06:33N 53°51' E 008°57'10 9.6
2014-Nov-22 05:34N 53°54' E 008°42'1010.4
2014-Nov-22 04:33N 53°59' E 008°26'1110.6
2014-Nov-22 03:33N 54°02' E 008°09'1 0.6
2014-Nov-22 02:30N 54°02' E 008°08'0 0.0
2014-Nov-22 01:30N 54°02' E 008°08'0 0.0
2014-Nov-22 00:30N 54°02' E 008°08'0 0.0
2014-Nov-21 23:30N 54°02' E 008°08'0 0.0
2014-Nov-21 22:30N 54°02' E 008°08'0 0.1
2014-Nov-21 21:30N 54°02' E 008°09'0 0.0
2014-Nov-21 20:24N 54°02' E 008°09'0 0.0
2014-Nov-21 19:30N 54°02' E 008°09'0 0.2
2014-Nov-21 18:30N 54°02' E 008°08'0 0.0
2014-Nov-21 17:30N 54°02' E 008°08'0 0.2
2014-Nov-21 16:33N 54°02' E 008°08'1010.0
2014-Nov-21 15:33N 53°57' E 007°53'1211.9
2014-Nov-21 14:33N 53°55' E 007°33'1611.8
2014-Nov-21 13:14N 53°51' E 007°07'3111.6
2014-Nov-21 10:31N 53°44' E 006°16'1111.7
2014-Nov-21 09:33N 53°40' E 005°57'1211.7
2014-Nov-21 08:33N 53°37' E 005°39'1211.9
2014-Nov-21 07:34N 53°33' E 005°20'1212.3
2014-Nov-21 06:33N 53°28' E 005°01'1212.4
2014-Nov-21 05:33N 53°22' E 004°42'1313.3
2014-Nov-21 04:32N 53°10' E 004°31'1313.5
2014-Nov-21 03:33N 52°59' E 004°21'1313.2
2014-Nov-21 02:33N 52°47' E 004°11'1312.8
2014-Nov-21 01:31N 52°37' E 003°56'1313.0
2014-Nov-21 00:32N 52°28' E 003°41'1212.3
2014-Nov-20 23:32N 52°19' E 003°27'1212.1
2014-Nov-20 22:31N 52°07' E 003°26'1211.3
2014-Nov-20 21:28N 51°55' E 003°23'9 9.9
2014-Nov-20 20:32N 51°47' E 003°15'1210.8
2014-Nov-20 19:26N 51°36' E 003°23'1011.5
2014-Nov-20 18:33N 51°28' E 003°31'1111.0
2014-Nov-20 17:33N 51°21' E 003°46'1 0.6
2014-Nov-20 16:30N 51°21' E 003°46'0 0.0
2014-Nov-20 15:27N 51°21' E 003°46'0 0.0
2014-Nov-20 14:15N 51°21' E 003°46'0 0.0
2014-Nov-20 13:33N 51°21' E 003°46'0 0.0
2014-Nov-20 12:15N 51°21' E 003°46'0 0.0
2014-Nov-20 11:27N 51°21' E 003°46'0 0.0
2014-Nov-20 10:15N 51°21' E 003°46'0 0.0
2014-Nov-20 09:15N 51°21' E 003°46'0 0.0
2014-Nov-20 08:12N 51°21' E 003°46'0 0.0
2014-Nov-20 07:15N 51°21' E 003°46'0 0.0
2014-Nov-20 06:27N 51°21' E 003°46'0 0.0
2014-Nov-20 05:33N 51°21' E 003°46'0 0.0
2014-Nov-20 04:30N 51°21' E 003°46'0 0.0
2014-Nov-20 03:33N 51°21' E 003°46'0 0.0
2014-Nov-20 02:30N 51°21' E 003°46'0 0.0
2014-Nov-20 01:24N 51°21' E 003°46'0 0.0
2014-Nov-20 00:18N 51°21' E 003°46'0 0.0
2014-Nov-19 22:09N 51°21' E 003°46'0 0.0
2014-Nov-19 21:21N 51°21' E 003°46'0 0.0
2014-Nov-19 19:33N 51°21' E 003°46'0 0.0
2014-Nov-19 17:27N 51°21' E 003°46'0 0.0
2014-Nov-19 16:21N 51°21' E 003°46'0 0.0
2014-Nov-19 12:03N 51°21' E 003°46'0 0.0
2014-Nov-19 08:12N 51°21' E 003°46'5 7.1
2014-Nov-19 07:33N 51°25' E 003°42'1312.5
2014-Nov-19 06:33N 51°32' E 003°26'1313.0
2014-Nov-19 05:31N 51°43' E 003°15'  
Track history (hours):
 
Tides and Currents Weather Stations Pressure Air Temp Water Temp Dewpoint Dewpoint Depression Visibility Wind Speed Wind Dir Waves Ship Positions

Betagas

Last reported at 2014-Nov-28 18:31 UTC. Time now 2014-Nov-28 22:56 UTC.
Position N 55°57' W 001°54'.

Length 114.6 m; beam 15.7 m; draft 7.4 m.

Type: Tanker. MMSI: 304050636.

Date/timePositionNaut miles runAvg speedWind from/ knotsBaromVisibWave heightAir tempDewpointWater temp
2014-Nov-28 18:31N 55°57' W 001°54'1010.6
2014-Nov-28 17:33N 55°60' W 002°11'1110.6
2014-Nov-28 16:33N 56°02' W 002°30'1 0.8
2014-Nov-28 15:23N 56°02' W 002°32'0 0.0
2014-Nov-28 14:26N 56°02' W 002°32'0 0.0
2014-Nov-28 13:26N 56°02' W 002°32'0 0.0
2014-Nov-28 12:26N 56°02' W 002°32'0 0.0
2014-Nov-28 11:29N 56°02' W 002°32'0 0.0
2014-Nov-28 10:29N 56°02' W 002°32'0 0.0
2014-Nov-28 09:29N 56°02' W 002°32'0 0.0
2014-Nov-28 08:32N 56°02' W 002°32'0 0.0
2014-Nov-28 07:29N 56°02' W 002°32'0 0.0
2014-Nov-28 06:32N 56°02' W 002°32'0 0.0
2014-Nov-28 05:32N 56°02' W 002°32'0 0.0
2014-Nov-28 04:32N 56°02' W 002°32'0 0.0
2014-Nov-28 03:32N 56°02' W 002°32'0 0.0
2014-Nov-28 02:32N 56°02' W 002°32'0 0.0
2014-Nov-28 01:23N 56°02' W 002°31'0 0.0
2014-Nov-28 00:26N 56°02' W 002°31'0 0.0
2014-Nov-27 23:23N 56°02' W 002°31'0 0.0
2014-Nov-27 22:26N 56°02' W 002°31'0 0.0
2014-Nov-27 21:26N 56°02' W 002°31'0 0.0
2014-Nov-27 20:29N 56°02' W 002°31'0 0.0
2014-Nov-27 19:29N 56°02' W 002°31'0 0.0
2014-Nov-27 18:32N 56°02' W 002°31'0 0.0
2014-Nov-27 17:32N 56°02' W 002°31'0 0.4
2014-Nov-27 16:33N 56°02' W 002°32'1211.7
2014-Nov-27 15:33N 56°05' W 002°52'1313.4
2014-Nov-27 14:33N 56°02' W 003°15'1110.9
2014-Nov-27 13:33N 56°02' W 003°35'4 3.6
2014-Nov-27 12:31N 56°02' W 003°41'0 0.0
2014-Nov-27 11:31N 56°02' W 003°41'0 0.0
2014-Nov-27 10:31N 56°02' W 003°41'0 0.0
2014-Nov-27 09:28N 56°02' W 003°41'0 0.0
2014-Nov-27 08:31N 56°02' W 003°41'0 0.0
2014-Nov-27 07:31N 56°02' W 003°41'0 0.0
2014-Nov-27 06:31N 56°02' W 003°41'0 0.0
2014-Nov-27 05:31N 56°02' W 003°41'0 0.0
2014-Nov-27 04:31N 56°02' W 003°41'0 0.0
2014-Nov-27 03:31N 56°02' W 003°41'0 0.0
2014-Nov-27 02:31N 56°02' W 003°41'0 0.0
2014-Nov-27 01:31N 56°02' W 003°41'0 0.0
2014-Nov-27 00:31N 56°02' W 003°41'0 0.0
2014-Nov-26 23:31N 56°02' W 003°41'0 0.0
2014-Nov-26 22:31N 56°02' W 003°41'0 0.0
2014-Nov-26 21:31N 56°02' W 003°41'0 0.0
2014-Nov-26 20:31N 56°02' W 003°41'0 0.0
2014-Nov-26 19:31N 56°02' W 003°41'0 0.0
2014-Nov-26 18:31N 56°02' W 003°41'0 0.0
2014-Nov-26 17:33N 56°02' W 003°41'3 3.0
2014-Nov-26 16:33N 56°02' W 003°36'8 8.2
2014-Nov-26 15:33N 56°01' W 003°22'10 9.8
2014-Nov-26 14:33N 56°04' W 003°05'3 2.7
2014-Nov-26 13:33N 56°07' W 003°05'0 0.0
2014-Nov-26 12:24N 56°07' W 003°05'0 0.1
2014-Nov-26 11:27N 56°07' W 003°05'0 0.1
2014-Nov-26 10:27N 56°07' W 003°05'0 0.0
2014-Nov-26 09:27N 56°07' W 003°05'0 0.0
2014-Nov-26 08:30N 56°07' W 003°05'0 0.0
2014-Nov-26 07:30N 56°07' W 003°05'0 0.0
2014-Nov-26 06:30N 56°07' W 003°05'0 0.0
2014-Nov-26 05:33N 56°07' W 003°05'2 2.1
2014-Nov-26 04:33N 56°07' W 003°01'1212.5
2014-Nov-26 03:34N 56°06' W 002°39'1211.8
2014-Nov-26 02:33N 56°03' W 002°19'1212.0
2014-Nov-26 01:34N 55°59' W 001°59'1212.2
2014-Nov-26 00:32N 55°51' W 001°42'5012.4
2014-Nov-25 20:33N 55°04' W 001°10'1212.3
2014-Nov-25 19:33N 54°52' W 001°08'1211.9
2014-Nov-25 18:31N 54°40' W 001°08'4 1.4
2014-Nov-25 15:26N 54°36' W 001°11'0 0.0
2014-Nov-25 12:29N 54°36' W 001°11'0 0.0
2014-Nov-25 10:26N 54°36' W 001°11'0 0.0
2014-Nov-24 13:05N 54°36' W 001°11'0 0.0
2014-Nov-24 11:23N 54°36' W 001°11'0 0.0
2014-Nov-24 10:23N 54°36' W 001°11'0 0.0
2014-Nov-24 09:34N 54°36' W 001°11'7 6.9
2014-Nov-24 08:32N 54°41' W 001°02'1814.0
2014-Nov-24 07:17N 54°38' W 000°33'1014.0
2014-Nov-24 06:33N 54°36' W 000°15'1413.6
2014-Nov-24 05:33N 54°33' E 000°08'1313.3
2014-Nov-24 04:33N 54°31' E 000°30'15313.9
2014-Nov-23 17:33N 54°05' E 004°49'1413.9
2014-Nov-23 16:33N 54°06' E 005°13'1515.1
2014-Nov-23 15:33N 54°08' E 005°38'5015.5
2014-Nov-23 12:20N 54°12' E 007°03'1215.0
2014-Nov-23 11:33N 54°12' E 007°23'1414.2
2014-Nov-23 10:33N 54°07' E 007°46'1414.2
2014-Nov-23 09:33N 54°01' E 008°07'1312.7
2014-Nov-23 08:34N 53°59' E 008°28'1313.4
2014-Nov-23 07:34N 53°51' E 008°47'1414.4
2014-Nov-23 06:33N 53°53' E 009°11'1514.7
2014-Nov-23 05:34N 53°43' E 009°29'4 0.2
2014-Nov-22 09:33N 53°39' E 009°31'5 5.5
2014-Nov-22 08:32N 53°44' E 009°26'1111.5
2014-Nov-22 07:34N 53°53' E 009°14'1010.3
2014-Nov-22 06:33N 53°51' E 008°57'10 9.6
2014-Nov-22 05:34N 53°54' E 008°42'1010.4
2014-Nov-22 04:33N 53°59' E 008°26'1110.6
2014-Nov-22 03:33N 54°02' E 008°09'1 0.6
2014-Nov-22 02:30N 54°02' E 008°08'0 0.0
2014-Nov-22 01:30N 54°02' E 008°08'0 0.0
2014-Nov-22 00:30N 54°02' E 008°08'0 0.0
2014-Nov-21 23:30N 54°02' E 008°08'0 0.0
2014-Nov-21 22:30N 54°02' E 008°08'0 0.1
2014-Nov-21 21:30N 54°02' E 008°09'0 0.0
2014-Nov-21 20:24N 54°02' E 008°09'0 0.0
2014-Nov-21 19:30N 54°02' E 008°09'0 0.2
2014-Nov-21 18:30N 54°02' E 008°08'0 0.0
2014-Nov-21 17:30N 54°02' E 008°08'0 0.2
2014-Nov-21 16:33N 54°02' E 008°08'1010.0
2014-Nov-21 15:33N 53°57' E 007°53'1211.9
2014-Nov-21 14:33N 53°55' E 007°33'1611.8
2014-Nov-21 13:14N 53°51' E 007°07'3111.6
2014-Nov-21 10:31N 53°44' E 006°16'1111.7
2014-Nov-21 09:33N 53°40' E 005°57'1211.7
2014-Nov-21 08:33N 53°37' E 005°39'1211.9
2014-Nov-21 07:34N 53°33' E 005°20'1212.3
2014-Nov-21 06:33N 53°28' E 005°01'1212.4
2014-Nov-21 05:33N 53°22' E 004°42'1313.3
2014-Nov-21 04:32N 53°10' E 004°31'1313.5
2014-Nov-21 03:33N 52°59' E 004°21'1313.2
2014-Nov-21 02:33N 52°47' E 004°11'1312.8
2014-Nov-21 01:31N 52°37' E 003°56'1313.0
2014-Nov-21 00:32N 52°28' E 003°41'1212.3
2014-Nov-20 23:32N 52°19' E 003°27'1212.1
2014-Nov-20 22:31N 52°07' E 003°26'1211.3
2014-Nov-20 21:28N 51°55' E 003°23'9 9.9
2014-Nov-20 20:32N 51°47' E 003°15'1210.8
2014-Nov-20 19:26N 51°36' E 003°23'1011.5
2014-Nov-20 18:33N 51°28' E 003°31'1111.0
2014-Nov-20 17:33N 51°21' E 003°46'1 0.6
2014-Nov-20 16:30N 51°21' E 003°46'0 0.0
2014-Nov-20 15:27N 51°21' E 003°46'0 0.0
2014-Nov-20 14:15N 51°21' E 003°46'0 0.0
2014-Nov-20 13:33N 51°21' E 003°46'0 0.0
2014-Nov-20 12:15N 51°21' E 003°46'0 0.0
2014-Nov-20 11:27N 51°21' E 003°46'0 0.0
2014-Nov-20 10:15N 51°21' E 003°46'0 0.0
2014-Nov-20 09:15N 51°21' E 003°46'0 0.0
2014-Nov-20 08:12N 51°21' E 003°46'0 0.0
2014-Nov-20 07:15N 51°21' E 003°46'0 0.0
2014-Nov-20 06:27N 51°21' E 003°46'0 0.0
2014-Nov-20 05:33N 51°21' E 003°46'0 0.0
2014-Nov-20 04:30N 51°21' E 003°46'0 0.0
2014-Nov-20 03:33N 51°21' E 003°46'0 0.0
2014-Nov-20 02:30N 51°21' E 003°46'0 0.0
2014-Nov-20 01:24N 51°21' E 003°46'0 0.0
2014-Nov-20 00:18N 51°21' E 003°46'0 0.0
2014-Nov-19 22:09N 51°21' E 003°46'0 0.0
2014-Nov-19 21:21N 51°21' E 003°46'0 0.0
2014-Nov-19 19:33N 51°21' E 003°46'0 0.0
2014-Nov-19 17:27N 51°21' E 003°46'0 0.0
2014-Nov-19 16:21N 51°21' E 003°46'0 0.0
2014-Nov-19 12:03N 51°21' E 003°46'0 0.0
2014-Nov-19 08:12N 51°21' E 003°46'5 7.1
2014-Nov-19 07:33N 51°25' E 003°42'1312.5
2014-Nov-19 06:33N 51°32' E 003°26'1313.0
2014-Nov-19 05:31N 51°43' E 003°15'  

Dump ship's entire track history